Breckenridge, TX

7:58 AM CDT on August 24, 2016 (GMT -0500)
West Breckenridge | | Change Station

Elev 1263 ft 32.75 °N, 98.93 °W | Updated 1 minute ago

Clear
Clear
73.9 °F
Feels Like 74 °F
N
2.8
Wind Variable Wind from SSW
Gusts 5.1 mph

Today
High -- | Low -- °F
--% Chance of Precip.
Yesterday
High -- | Low -- °F
Precip. -- in
Pressure 30.09 in
Visibility 7.0 miles
Clouds Clear
Heat Index 74 °F
Dew Point 68 °F
Humidity 82%
Rainfall 0.00 in
Snow Depth Not available.
7:05 AM 8:09 PM
Waning Gibbous, 57% visible
METAR KBKD 241230Z AUTO 20007KT 7SM CLR 24/20 A3009 RMK AO2 T02400195
Pressure 30.09 in
Visibility 7.0 miles
Clouds Clear
Heat Index 74 °F
Dew Point 68 °F
Humidity 82%
Rainfall 0.00 in
Snow Depth Not available.
7:05 AM 8:09 PM
Waning Gibbous, 57% visible
METAR KBKD 241230Z AUTO 20007KT 7SM CLR 24/20 A3009 RMK AO2 T02400195

10-Day Weather Forecast

Almanac

Astronomy

Aug. 24, 2016 Rise Set
Actual Time
Civil Twilight
Nautical Twilight
Astronomical Twilight
Moon
Length of Visible Light
Length of Day
Tomorrow will be .
, % of the Moon is Illuminated

Today's Extremes

State Highs State Lows

Community

WunderPhotos

Upload Photos

1,934,584 photos uploaded!

WunderBlog® & News

Nearby

Air Quality

  Air Quality AQ Index Pollutant
Not available.

Snow Depth

Station Depth Elevation

Earthquake Activity

City Distance Mag. Time & Date
Minimum magnitude displayed is 2.5.

Coastal Water Temperatures

Place Temperature

Stations

Nearby Weather Stations

Station Location Temp. Windchill Dew Point Humidity Wind Precip. Elev Updated Type
                   

Watches & Warnings

There are currently no watches in effect.